Terminal Aerodrome Forecast
Issued by NWS

Home | Current Version | Previous Version | Text Only | Print | Product List | Glossary On
Versions: 1 2 3 4 5 6 7 8 9 10 11 12 13 14
000
FTUS46 KMTR 190659 AAA
TAFSJC
TAF AMD
KSJC 190659Z 1907/2006 08005KT P6SM -RA FEW009 BKN050 OVC090
     FM190800 14010KT P6SM VCSH BKN050 BKN090
     FM192000 31009KT P6SM SCT050 BKN100
     FM200200 14006KT P6SM SCT050 BKN100=

USA.gov is the U.S. government's official web portal to all federal, state and local government web resources and services.